Time;durP1;ratioP1;P1;durP2;ratioP2;P2;SDS_P1;SDS_P2;PMS_P1;PMS_P2;Temp;Humidity;BMP_temperature;BMP_pressure;BME280_temperature;BME280_humidity;BME280_pressure;Samples;Min_cycle;Max_cycle;Signal;HPM_P1;HPM_P2
2022/11/26 00:00:20;;;;;;;5.83;3.00;;;8.40;99.90;;;;;;5079759;28;20315;-74
2022/11/26 00:02:46;;;;;;;4.67;3.00;;;8.40;99.90;;;;;;5107330;28;20196;-77
2022/11/26 00:05:16;;;;;;;4.53;2.90;;;8.40;99.90;;;;;;5090913;28;20173;-78
2022/11/26 00:07:54;;;;;;;4.90;2.87;;;8.30;99.90;;;;;;5093448;28;20176;-75
2022/11/26 00:10:24;;;;;;;5.30;2.97;;;8.40;99.90;;;;;;5058483;28;20521;-77
2022/11/26 00:12:50;;;;;;;6.23;2.80;;;8.30;99.90;;;;;;5059124;28;20177;-78
2022/11/26 00:15:15;;;;;;;5.97;3.00;;;8.30;99.90;;;;;;5093191;28;20187;-77
2022/11/26 00:17:41;;;;;;;6.03;3.17;;;8.30;99.90;;;;;;5060223;28;20184;-78
2022/11/26 00:20:07;;;;;;;5.67;3.13;;;8.30;99.90;;;;;;5093195;28;20173;-78
2022/11/26 00:22:42;;;;;;;3.60;2.63;;;8.30;99.90;;;;;;5062060;28;20197;-78
2022/11/26 00:25:28;;;;;;;6.57;2.93;;;8.30;99.90;;;;;;5092924;28;20229;-78
2022/11/26 00:27:56;;;;;;;5.90;3.20;;;8.30;99.90;;;;;;5090305;28;20180;-78
2022/11/26 00:30:25;;;;;;;8.47;3.00;;;8.30;99.90;;;;;;5059124;28;20185;-77
2022/11/26 00:32:52;;;;;;;4.20;3.03;;;8.30;99.90;;;;;;5094342;28;20195;-78
2022/11/26 00:35:21;;;;;;;7.10;3.23;;;8.30;99.90;;;;;;5093361;28;20184;-78
2022/11/26 00:37:58;;;;;;;5.67;3.03;;;8.30;99.90;;;;;;5093106;28;20181;-79
2022/11/26 00:40:32;;;;;;;4.97;2.70;;;8.40;99.90;;;;;;5060327;28;20180;-79
2022/11/26 00:43:00;;;;;;;7.30;3.10;;;8.40;99.90;;;;;;5057833;28;20201;-79
2022/11/26 00:45:30;;;;;;;8.67;3.60;;;8.40;99.90;;;;;;5094610;28;20210;-78
2022/11/26 00:47:56;;;;;;;7.23;3.20;;;8.40;99.90;;;;;;5092793;28;20172;-78
2022/11/26 00:50:25;;;;;;;5.43;2.83;;;8.40;99.90;;;;;;5092208;28;20168;-78
2022/11/26 00:52:53;;;;;;;6.60;2.80;;;8.40;99.90;;;;;;5059920;28;20208;-79
2022/11/26 00:55:30;;;;;;;4.87;2.80;;;8.40;99.90;;;;;;5059713;28;20169;-79
2022/11/26 00:58:02;;;;;;;6.30;2.73;;;8.40;99.90;;;;;;5058815;28;20180;-78
2022/11/26 01:00:31;;;;;;;4.97;2.90;;;8.40;99.90;;;;;;5060053;28;20223;-78
2022/11/26 01:02:57;;;;;;;5.80;3.10;;;8.40;99.90;;;;;;5058271;28;20193;-79
2022/11/26 01:05:29;;;;;;;4.67;2.70;;;8.50;99.90;;;;;;5092709;28;20263;-78
2022/11/26 01:08:01;;;;;;;5.63;3.10;;;8.40;99.90;;;;;;5060027;28;20233;-78
2022/11/26 01:10:32;;;;;;;4.17;2.70;;;8.30;99.90;;;;;;5094550;28;20233;-77
2022/11/26 01:12:57;;;;;;;3.97;2.57;;;8.30;99.90;;;;;;5091921;28;20168;-78
2022/11/26 01:15:24;;;;;;;5.37;3.57;;;8.30;99.90;;;;;;5093866;28;20321;-78
2022/11/26 01:17:57;;;;;;;6.13;3.07;;;8.30;99.90;;;;;;5093430;28;20279;-78
2022/11/26 01:20:28;;;;;;;5.57;2.93;;;8.20;99.90;;;;;;5074642;28;20181;-77
2022/11/26 01:22:57;;;;;;;6.37;2.83;;;8.20;99.90;;;;;;5090475;28;20215;-79
2022/11/26 01:25:28;;;;;;;4.37;2.70;;;8.20;99.90;;;;;;5093031;28;20189;-77
2022/11/26 01:27:54;;;;;;;3.43;2.77;;;8.20;99.90;;;;;;5060930;28;20218;-76
2022/11/26 01:30:28;;;;;;;7.83;3.10;;;8.20;99.90;;;;;;5094460;28;20208;-76
2022/11/26 01:32:54;;;;;;;5.07;2.87;;;8.10;99.90;;;;;;5075359;28;20172;-75
2022/11/26 01:35:20;;;;;;;4.37;2.80;;;8.10;99.90;;;;;;5093417;28;20191;-75
2022/11/26 01:37:46;;;;;;;6.07;2.80;;;8.00;99.90;;;;;;5075469;28;20181;-74
2022/11/26 01:40:24;;;;;;;4.13;2.63;;;8.00;99.90;;;;;;5058609;28;20180;-77
2022/11/26 01:42:56;;;;;;;6.80;3.00;;;8.00;99.90;;;;;;5060080;28;20204;-77
2022/11/26 01:45:25;;;;;;;5.53;3.10;;;7.90;99.90;;;;;;5091993;28;20217;-76
2022/11/26 01:47:50;;;;;;;5.27;2.60;;;7.90;99.90;;;;;;5061172;28;20180;-77
2022/11/26 01:50:33;;;;;;;4.93;2.50;;;8.00;99.90;;;;;;5095124;28;20264;-78
2022/11/26 01:53:14;;;;;;;5.07;2.90;;;8.00;99.90;;;;;;5091674;28;20184;-76
2022/11/26 01:55:46;;;;;;;3.63;2.27;;;8.00;99.90;;;;;;5057940;28;20172;-77
2022/11/26 01:58:17;;;;;;;3.93;2.63;;;8.00;99.90;;;;;;5091725;28;20169;-78
2022/11/26 02:00:43;;;;;;;6.43;2.57;;;8.10;99.90;;;;;;5058963;28;20280;-76
2022/11/26 02:03:09;;;;;;;4.53;2.77;;;8.10;99.90;;;;;;5057638;28;20283;-77
2022/11/26 02:05:41;;;;;;;6.37;2.97;;;8.10;99.90;;;;;;5058957;28;20161;-78
2022/11/26 02:08:10;;;;;;;4.50;2.53;;;8.10;99.90;;;;;;5091659;28;20176;-76
2022/11/26 02:10:36;;;;;;;5.63;2.47;;;8.10;99.90;;;;;;5087869;28;20180;-75
2022/11/26 02:13:02;;;;;;;6.03;2.50;;;8.10;99.90;;;;;;5091090;28;20176;-77
2022/11/26 02:15:37;;;;;;;4.47;2.60;;;8.20;99.90;;;;;;5058809;28;20179;-78
2022/11/26 02:18:08;;;;;;;4.37;2.40;;;8.20;99.90;;;;;;5078214;28;20239;-73
2022/11/26 02:21:04;;;;;;;5.17;2.57;;;8.10;99.90;;;;;;5078546;28;20202;-70
2022/11/26 02:23:58;;;;;;;4.73;2.20;;;8.10;99.90;;;;;;5077577;28;20211;-78
2022/11/26 02:26:42;;;;;;;4.67;2.27;;;8.10;99.90;;;;;;5056278;28;20176;-78
2022/11/26 02:29:29;;;;;;;4.93;2.20;;;8.00;99.90;;;;;;5091098;28;20180;-78
2022/11/26 02:32:16;;;;;;;6.47;2.67;;;8.00;99.90;;;;;;5086826;28;20172;-77
2022/11/26 02:34:50;;;;;;;4.50;2.27;;;7.90;99.90;;;;;;5072384;28;20168;-78
2022/11/26 02:37:36;;;;;;;3.40;2.20;;;8.00;99.90;;;;;;5058319;28;20172;-76
2022/11/26 02:40:08;;;;;;;3.67;2.00;;;7.80;99.90;;;;;;5058154;28;20210;-77
2022/11/26 02:42:35;;;;;;;7.20;2.50;;;7.70;99.90;;;;;;5059111;28;20201;-78
2022/11/26 02:45:27;;;;;;;4.17;2.20;;;7.70;99.90;;;;;;5090335;28;20184;-78
2022/11/26 02:47:56;;;;;;;4.10;2.13;;;7.60;99.90;;;;;;5058162;28;20244;-79
2022/11/26 02:50:28;;;;;;;4.63;2.60;;;7.50;99.90;;;;;;5060314;28;20236;-77
2022/11/26 02:52:57;;;;;;;3.43;2.30;;;7.50;99.90;;;;;;5056559;28;20203;-76
2022/11/26 02:55:28;;;;;;;4.10;2.30;;;7.50;99.90;;;;;;5058190;28;20267;-77
2022/11/26 02:57:55;;;;;;;3.70;2.57;;;7.50;99.90;;;;;;5089468;28;20187;-78
2022/11/26 03:00:23;;;;;;;4.80;2.37;;;7.50;99.90;;;;;;5093302;28;20199;-77
2022/11/26 03:03:00;;;;;;;4.27;2.20;;;7.50;99.90;;;;;;5089647;28;20188;-78
2022/11/26 03:05:29;;;;;;;5.20;2.20;;;7.50;99.90;;;;;;5056197;28;20263;-78
2022/11/26 03:07:55;;;;;;;5.77;2.60;;;7.50;99.90;;;;;;5094657;28;20232;-77
2022/11/26 03:10:29;;;;;;;4.77;2.30;;;7.50;99.90;;;;;;5056591;28;20233;-75
2022/11/26 03:12:57;;;;;;;3.30;2.50;;;7.40;99.90;;;;;;5057220;28;20188;-78
2022/11/26 03:15:26;;;;;;;4.90;2.30;;;7.40;99.90;;;;;;5090516;28;20187;-77
2022/11/26 03:17:51;;;;;;;4.23;2.40;;;7.50;99.90;;;;;;5092180;28;20184;-77
2022/11/26 03:20:17;;;;;;;3.47;2.10;;;7.40;99.90;;;;;;5091911;28;20176;-78
2022/11/26 03:22:48;;;;;;;3.87;2.30;;;7.30;99.90;;;;;;5054421;28;20220;-77
2022/11/26 03:25:13;;;;;;;4.10;2.00;;;7.30;99.90;;;;;;5057095;28;20169;-74
2022/11/26 03:27:39;;;;;;;3.40;1.90;;;7.30;99.90;;;;;;5090106;28;20172;-76
2022/11/26 03:30:07;;;;;;;2.70;1.93;;;7.30;99.90;;;;;;5089476;28;20161;-76
2022/11/26 03:32:33;;;;;;;5.03;2.10;;;7.30;99.90;;;;;;5097062;28;20187;-76
2022/11/26 03:35:02;;;;;;;3.60;1.83;;;7.40;99.90;;;;;;5094958;28;20177;-76
2022/11/26 03:37:28;;;;;;;4.77;1.93;;;7.30;99.90;;;;;;5094452;28;20204;-76
2022/11/26 03:39:56;;;;;;;2.93;1.90;;;7.30;99.90;;;;;;5061324;28;20184;-76
2022/11/26 03:42:24;;;;;;;3.43;1.97;;;7.30;99.90;;;;;;5094911;28;20231;-76
2022/11/26 03:44:51;;;;;;;4.17;1.93;;;7.30;99.90;;;;;;5092990;28;20242;-76
2022/11/26 03:47:22;;;;;;;3.20;1.90;;;7.40;99.90;;;;;;5095851;28;20210;-77
2022/11/26 03:49:50;;;;;;;4.40;1.80;;;7.30;99.90;;;;;;5061003;28;20165;-76
2022/11/26 03:52:18;;;;;;;3.77;1.77;;;7.40;99.90;;;;;;5058067;28;20212;-76
2022/11/26 03:54:44;;;;;;;3.80;2.00;;;7.40;99.90;;;;;;5094535;28;20180;-74
2022/11/26 03:57:15;;;;;;;5.70;2.00;;;7.40;99.90;;;;;;5061782;28;20184;-75
2022/11/26 03:59:43;;;;;;;3.47;1.73;;;7.40;99.90;;;;;;5094024;28;20184;-76
2022/11/26 04:02:11;;;;;;;4.33;1.80;;;7.40;99.90;;;;;;5094153;28;20200;-76
2022/11/26 04:04:39;;;;;;;3.27;1.70;;;7.40;99.90;;;;;;5059878;28;20184;-75
2022/11/26 04:07:09;;;;;;;3.20;1.60;;;7.30;99.90;;;;;;5092978;28;20176;-75
2022/11/26 04:09:35;;;;;;;4.87;1.60;;;7.40;99.90;;;;;;5093663;28;20177;-77
2022/11/26 04:12:03;;;;;;;4.13;1.90;;;7.40;99.90;;;;;;5092731;28;20189;-76
2022/11/26 04:14:29;;;;;;;2.67;1.50;;;7.40;99.90;;;;;;5060368;28;20198;-77
2022/11/26 04:16:54;;;;;;;2.70;1.57;;;7.40;99.90;;;;;;5093463;28;20177;-76
2022/11/26 04:19:20;;;;;;;4.17;1.70;;;7.40;99.90;;;;;;5091696;28;20181;-76
2022/11/26 04:21:45;;;;;;;3.03;1.57;;;7.40;99.90;;;;;;5060406;28;21144;-77
2022/11/26 04:24:14;;;;;;;3.23;1.73;;;7.30;99.90;;;;;;5092416;28;20259;-77
2022/11/26 04:26:44;;;;;;;4.20;1.90;;;7.30;99.90;;;;;;5091524;28;20169;-75
2022/11/26 04:29:09;;;;;;;3.03;1.50;;;7.30;99.90;;;;;;5092970;28;20181;-77
2022/11/26 04:31:35;;;;;;;2.73;1.40;;;7.30;99.90;;;;;;5093126;28;20245;-75
2022/11/26 04:34:03;;;;;;;3.07;1.67;;;7.30;99.90;;;;;;5093117;28;20184;-76
2022/11/26 04:36:31;;;;;;;4.33;1.67;;;7.30;99.90;;;;;;5091329;28;20200;-76
2022/11/26 04:39:00;;;;;;;4.37;1.80;;;7.30;99.90;;;;;;5094451;28;20176;-76
2022/11/26 04:41:28;;;;;;;3.03;1.73;;;7.20;99.90;;;;;;5061732;28;20245;-76
2022/11/26 04:43:54;;;;;;;2.43;1.60;;;7.20;99.90;;;;;;5093775;28;20556;-76
2022/11/26 04:46:19;;;;;;;3.53;1.90;;;7.20;99.90;;;;;;5076327;28;20236;-77
2022/11/26 04:48:45;;;;;;;3.73;1.70;;;7.20;99.90;;;;;;5057834;28;20951;-76
2022/11/26 04:51:10;;;;;;;3.43;1.63;;;7.10;99.90;;;;;;5096771;28;20207;-74
2022/11/26 04:53:36;;;;;;;3.63;1.70;;;7.10;99.90;;;;;;5092651;28;20173;-75
2022/11/26 04:56:01;;;;;;;4.53;1.50;;;7.00;99.90;;;;;;5093001;28;20191;-74
2022/11/26 04:58:27;;;;;;;2.80;1.80;;;7.00;99.90;;;;;;5059267;28;20177;-75
2022/11/26 05:00:53;;;;;;;4.03;2.00;;;7.00;99.90;;;;;;5092399;28;20184;-75
2022/11/26 05:03:19;;;;;;;3.07;1.60;;;6.90;99.90;;;;;;5097752;28;20203;-74
2022/11/26 05:05:45;;;;;;;3.90;1.90;;;6.90;99.90;;;;;;5058911;28;20188;-74
2022/11/26 05:08:11;;;;;;;3.13;1.87;;;6.90;99.90;;;;;;5090302;28;20222;-75
2022/11/26 05:10:37;;;;;;;3.67;1.77;;;7.00;99.90;;;;;;5090272;28;20554;-75
2022/11/26 05:13:02;;;;;;;4.27;2.43;;;6.80;99.90;;;;;;5094306;28;20165;-74
2022/11/26 05:15:28;;;;;;;9.00;5.00;;;6.80;99.90;;;;;;5090798;28;20187;-75
2022/11/26 05:17:56;;;;;;;4.90;3.17;;;6.80;99.90;;;;;;5093450;28;20183;-74
2022/11/26 05:20:24;;;;;;;5.10;2.77;;;6.70;99.90;;;;;;5092171;28;20180;-73
2022/11/26 05:22:49;;;;;;;22.57;14.37;;;6.70;99.90;;;;;;5091151;28;20202;-75
2022/11/26 05:25:15;;;;;;;11.27;7.63;;;6.60;99.90;;;;;;5092119;28;20176;-75
2022/11/26 05:27:40;;;;;;;12.67;8.67;;;6.60;99.90;;;;;;5094611;28;20252;-75
2022/11/26 05:30:11;;;;;;;8.10;5.10;;;6.60;99.90;;;;;;5092788;28;20185;-75
2022/11/26 05:32:37;;;;;;;4.57;3.13;;;6.50;99.90;;;;;;5057831;28;20194;-74
2022/11/26 05:35:08;;;;;;;9.17;3.13;;;6.60;99.90;;;;;;5093169;28;20263;-75
2022/11/26 05:37:36;;;;;;;4.70;2.23;;;6.50;99.90;;;;;;5059702;28;20177;-75
2022/11/26 05:40:06;;;;;;;3.40;2.30;;;6.50;99.90;;;;;;5058715;28;20226;-75
2022/11/26 05:42:31;;;;;;;5.73;2.50;;;6.50;99.90;;;;;;5059548;28;20215;-75
2022/11/26 05:45:02;;;;;;;3.97;2.37;;;6.50;99.90;;;;;;5089923;28;20169;-75
2022/11/26 05:47:33;;;;;;;3.23;2.10;;;6.50;99.90;;;;;;5089925;28;20172;-75
2022/11/26 05:50:00;;;;;;;8.83;5.40;;;6.50;99.90;;;;;;5097247;28;20176;-75
2022/11/26 05:52:31;;;;;;;5.17;3.27;;;6.50;99.90;;;;;;5094989;28;20184;-75
2022/11/26 05:54:56;;;;;;;4.27;3.10;;;6.50;99.90;;;;;;5091888;28;20184;-74
2022/11/26 05:57:22;;;;;;;3.17;2.30;;;6.50;99.90;;;;;;5077772;28;20183;-75
2022/11/26 05:59:48;;;;;;;2.77;2.10;;;6.40;99.90;;;;;;5092032;28;20180;-74
2022/11/26 06:02:13;;;;;;;4.63;2.17;;;6.40;99.90;;;;;;5092043;28;20228;-75
2022/11/26 06:04:39;;;;;;;4.07;2.00;;;6.40;99.90;;;;;;5092654;28;20188;-75
2022/11/26 06:07:05;;;;;;;6.03;2.20;;;6.50;99.90;;;;;;5090235;28;20207;-75
2022/11/26 06:09:30;;;;;;;3.77;2.10;;;6.40;99.90;;;;;;5094281;28;20176;-74
2022/11/26 06:11:56;;;;;;;4.17;2.17;;;6.40;99.90;;;;;;5057772;28;20184;-74
2022/11/26 06:14:24;;;;;;;4.93;2.43;;;6.40;99.90;;;;;;5056997;28;20222;-75
2022/11/26 06:16:49;;;;;;;4.23;2.20;;;6.60;99.90;;;;;;5090765;28;20206;-75
2022/11/26 06:19:15;;;;;;;3.53;2.17;;;6.50;99.90;;;;;;5062381;28;20181;-75
2022/11/26 06:21:41;;;;;;;4.23;2.30;;;6.50;99.90;;;;;;5091206;28;20204;-75
2022/11/26 06:24:07;;;;;;;4.90;2.20;;;6.50;99.90;;;;;;5089329;28;20173;-74
2022/11/26 06:26:33;;;;;;;4.00;2.00;;;6.50;99.90;;;;;;5054501;28;20233;-75
2022/11/26 06:29:01;;;;;;;3.60;2.07;;;6.50;99.90;;;;;;5092291;28;20250;-74
2022/11/26 06:31:26;;;;;;;4.93;2.20;;;6.50;99.90;;;;;;5091756;28;20280;-75
2022/11/26 06:33:55;;;;;;;6.67;2.10;;;6.50;99.90;;;;;;5091228;28;20275;-75
2022/11/26 06:36:23;;;;;;;2.77;1.93;;;6.50;99.90;;;;;;5059370;28;20227;-73
2022/11/26 06:38:54;;;;;;;3.23;1.83;;;6.50;99.90;;;;;;5058692;28;20193;-74
2022/11/26 06:41:20;;;;;;;4.37;2.00;;;6.60;99.90;;;;;;5090701;28;20295;-74
2022/11/26 06:43:45;;;;;;;3.00;2.13;;;6.50;99.90;;;;;;5090182;28;20279;-74
2022/11/26 06:46:11;;;;;;;3.00;2.03;;;6.50;99.90;;;;;;5094421;28;20506;-75
2022/11/26 06:48:39;;;;;;;6.47;2.27;;;6.60;99.90;;;;;;5091120;28;20189;-74
2022/11/26 06:51:07;;;;;;;3.13;1.97;;;6.60;99.90;;;;;;5090972;28;20214;-75
2022/11/26 06:53:35;;;;;;;6.53;4.23;;;6.60;99.90;;;;;;5090268;28;20193;-77
2022/11/26 06:56:07;;;;;;;6.83;4.60;;;6.50;99.90;;;;;;5090658;28;20176;-77
2022/11/26 06:58:33;;;;;;;4.97;2.83;;;6.50;99.90;;;;;;5055293;28;20176;-77
2022/11/26 07:01:05;;;;;;;4.80;2.80;;;6.50;99.90;;;;;;5091610;28;20180;-77
2022/11/26 07:03:34;;;;;;;3.43;2.30;;;6.50;99.90;;;;;;5090165;28;20237;-76
2022/11/26 07:06:02;;;;;;;5.23;2.60;;;6.50;99.90;;;;;;5087877;28;20184;-75
2022/11/26 07:08:36;;;;;;;5.47;2.60;;;6.60;99.90;;;;;;5089596;28;20180;-77
2022/11/26 07:11:03;;;;;;;5.00;2.17;;;6.60;99.90;;;;;;5090522;28;20191;-77
2022/11/26 07:13:28;;;;;;;5.03;2.43;;;6.60;99.90;;;;;;5093785;28;20279;-78
2022/11/26 07:16:03;;;;;;;3.50;1.90;;;6.60;99.90;;;;;;5090269;28;20227;-74
2022/11/26 07:18:30;;;;;;;1.93;1.73;;;6.60;99.90;;;;;;5074250;28;20180;-75
2022/11/26 07:20:55;;;;;;;4.83;1.90;;;6.60;99.90;;;;;;5091998;28;20484;-75
2022/11/26 07:23:21;;;;;;;4.00;2.00;;;6.70;99.90;;;;;;5091223;28;20204;-76
2022/11/26 07:25:47;;;;;;;3.10;1.80;;;6.80;99.90;;;;;;5090570;28;20193;-75
2022/11/26 07:28:15;;;;;;;3.60;2.03;;;6.80;99.90;;;;;;5092045;28;20180;-74
2022/11/26 07:30:43;;;;;;;2.57;1.90;;;6.80;99.90;;;;;;5090298;28;20267;-76
2022/11/26 07:33:12;;;;;;;4.20;2.30;;;6.90;99.90;;;;;;5091035;28;20187;-76
2022/11/26 07:35:42;;;;;;;4.30;2.20;;;6.90;99.90;;;;;;5090453;28;20214;-76
2022/11/26 07:38:08;;;;;;;6.03;2.10;;;7.00;99.90;;;;;;5090373;28;20173;-75
2022/11/26 07:40:34;;;;;;;4.33;1.80;;;7.10;99.90;;;;;;5089127;28;20202;-75
2022/11/26 07:43:02;;;;;;;5.37;2.03;;;7.10;99.90;;;;;;5095956;28;20287;-76
2022/11/26 07:45:28;;;;;;;3.87;1.90;;;7.20;99.90;;;;;;5090411;28;20177;-75
2022/11/26 07:47:55;;;;;;;3.37;2.23;;;7.20;99.90;;;;;;5092109;28;20173;-77
2022/11/26 07:50:30;;;;;;;4.07;2.00;;;7.20;99.90;;;;;;5095327;28;20177;-75
2022/11/26 07:52:59;;;;;;;3.17;2.00;;;7.20;99.90;;;;;;5090208;28;20183;-72
2022/11/26 07:55:24;;;;;;;3.10;1.80;;;7.20;99.90;;;;;;5106512;28;20188;-76
2022/11/26 07:57:55;;;;;;;5.87;2.27;;;7.20;99.90;;;;;;5058603;28;20173;-76
2022/11/26 08:00:25;;;;;;;4.40;2.03;;;7.30;99.90;;;;;;5059209;28;20255;-77
2022/11/26 08:02:54;;;;;;;4.47;1.73;;;7.30;99.90;;;;;;5091018;28;20267;-77
2022/11/26 08:05:20;;;;;;;3.60;1.90;;;7.30;99.90;;;;;;5058050;28;20233;-77
2022/11/26 08:07:45;;;;;;;4.37;2.20;;;7.30;99.90;;;;;;5059776;28;20172;-77
2022/11/26 08:10:11;;;;;;;3.70;1.90;;;7.30;99.90;;;;;;5090007;28;20180;-77
2022/11/26 08:12:37;;;;;;;4.57;2.03;;;7.40;99.90;;;;;;5090647;28;20192;-77
2022/11/26 08:15:04;;;;;;;4.37;2.30;;;7.40;99.90;;;;;;5090868;28;20173;-77
2022/11/26 08:17:31;;;;;;;4.60;2.37;;;7.50;99.90;;;;;;5090775;28;20211;-76
2022/11/26 08:19:57;;;;;;;3.43;2.30;;;7.60;99.90;;;;;;5094724;28;20256;-79
2022/11/26 08:22:27;;;;;;;2.93;2.03;;;7.50;99.90;;;;;;5094257;28;20300;-78
2022/11/26 08:24:55;;;;;;;2.83;1.93;;;7.50;99.90;;;;;;5060706;28;21092;-78
2022/11/26 08:27:23;;;;;;;5.93;2.30;;;7.60;99.90;;;;;;5094862;28;21062;-77
2022/11/26 08:29:53;;;;;;;5.07;2.40;;;7.60;99.90;;;;;;5091848;28;20207;-78
2022/11/26 08:32:19;;;;;;;3.50;2.13;;;7.70;99.90;;;;;;5093310;28;20185;-78
2022/11/26 08:34:47;;;;;;;4.77;2.50;;;7.70;99.90;;;;;;5093712;28;20195;-76
2022/11/26 08:37:12;;;;;;;4.53;2.30;;;7.70;99.90;;;;;;5095423;28;20184;-76
2022/11/26 08:39:38;;;;;;;3.77;2.00;;;7.80;99.90;;;;;;5092778;28;20176;-75
2022/11/26 08:42:04;;;;;;;6.20;2.37;;;7.70;99.90;;;;;;5093196;28;20204;-75
2022/11/26 08:44:32;;;;;;;5.27;2.43;;;7.70;99.90;;;;;;5059014;28;20180;-76
2022/11/26 08:46:57;;;;;;;3.13;2.20;;;7.80;99.90;;;;;;5076934;28;20173;-77
2022/11/26 08:49:23;;;;;;;3.93;2.00;;;7.80;99.90;;;;;;5093220;28;20257;-75
2022/11/26 08:51:55;;;;;;;3.93;2.23;;;7.80;99.90;;;;;;5095534;28;20229;-76
2022/11/26 08:54:23;;;;;;;6.03;2.23;;;7.90;99.90;;;;;;5058493;28;20180;-76
2022/11/26 08:56:48;;;;;;;3.13;2.20;;;8.10;99.90;;;;;;5058917;28;20208;-76
2022/11/26 08:59:18;;;;;;;2.67;2.07;;;8.30;99.90;;;;;;5094496;28;20212;-77
2022/11/26 09:01:46;;;;;;;4.10;2.47;;;8.50;99.90;;;;;;5095583;28;20185;-77
2022/11/26 09:04:12;;;;;;;6.27;2.50;;;8.90;99.90;;;;;;5092989;28;20196;-76
2022/11/26 09:06:39;;;;;;;3.77;2.17;;;9.20;99.90;;;;;;5096016;28;20184;-77
2022/11/26 09:09:14;;;;;;;5.83;2.83;;;9.50;99.90;;;;;;5091491;28;20201;-77
2022/11/26 09:11:57;;;;;;;4.67;2.53;;;9.80;99.90;;;;;;5059702;28;20267;-75
2022/11/26 09:14:27;;;;;;;3.77;2.40;;;10.10;99.90;;;;;;5090552;28;20194;-77
2022/11/26 09:16:54;;;;;;;4.47;2.50;;;10.40;99.90;;;;;;5091303;28;20267;-77
2022/11/26 09:19:23;;;;;;;4.70;2.50;;;10.60;99.90;;;;;;5091648;28;20184;-76
2022/11/26 09:21:55;;;;;;;4.17;2.63;;;10.70;99.90;;;;;;5096079;28;20270;-76
2022/11/26 09:24:21;;;;;;;3.50;2.33;;;10.90;99.90;;;;;;5106232;28;20165;-72
2022/11/26 09:26:48;;;;;;;3.25;2.28;;;10.90;99.90;;;;;;5094551;28;20167;-73
2022/11/26 09:29:16;;;;;;;4.25;2.30;;;10.90;99.90;;;;;;5078252;28;20184;-68
2022/11/26 09:31:46;;;;;;;4.80;2.70;;;10.90;99.90;;;;;;5114501;28;20185;-71
2022/11/26 09:34:12;;;;;;;4.85;2.58;;;10.90;99.90;;;;;;5117909;28;20183;-71
2022/11/26 09:36:38;;;;;;;3.92;2.58;;;10.90;99.90;;;;;;5106813;28;20172;-76
2022/11/26 09:39:03;;;;;;;4.50;2.53;;;10.90;99.90;;;;;;5096702;28;20279;-76
2022/11/26 09:41:32;;;;;;;6.18;2.50;;;10.90;99.90;;;;;;5097022;28;20192;-77
2022/11/26 09:44:07;;;;;;;6.57;2.55;;;10.90;99.90;;;;;;5058377;28;20196;-77
2022/11/26 09:46:54;;;;;;;3.95;2.40;;;10.90;99.90;;;;;;5061661;28;20259;-75
2022/11/26 09:49:21;;;;;;;3.47;2.35;;;10.90;99.90;;;;;;5093452;28;20199;-77
2022/11/26 09:51:53;;;;;;;4.93;2.33;;;11.00;99.90;;;;;;5091057;28;20191;-76
2022/11/26 09:54:22;;;;;;;6.60;2.95;;;11.00;99.90;;;;;;5058249;28;20177;-76
2022/11/26 09:57:01;;;;;;;4.25;2.75;;;11.00;99.90;;;;;;5058227;28;20168;-70
2022/11/26 09:59:34;;;;;;;4.20;2.95;;;11.00;99.90;;;;;;5057723;28;20168;-77
2022/11/26 10:02:04;;;;;;;4.55;2.78;;;11.10;99.90;;;;;;5091368;28;20206;-76
2022/11/26 10:04:34;;;;;;;5.22;3.03;;;11.10;99.90;;;;;;5059291;28;20169;-75
2022/11/26 10:07:25;;;;;;;5.97;3.53;;;11.10;99.90;;;;;;5055945;28;20168;-76
2022/11/26 10:10:05;;;;;;;5.45;3.28;;;11.10;99.90;;;;;;5093682;28;20271;-77
2022/11/26 10:12:54;;;;;;;4.20;3.10;;;11.10;99.90;;;;;;5057789;28;20184;-76
2022/11/26 10:15:34;;;;;;;4.30;3.17;;;11.10;99.90;;;;;;5044978;28;20198;-77
2022/11/26 10:18:30;;;;;;;3.95;3.00;;;11.10;99.90;;;;;;5076122;28;20310;-77
2022/11/26 10:21:18;;;;;;;5.63;3.05;;;11.10;99.90;;;;;;5059819;28;20207;-76
2022/11/26 10:23:50;;;;;;;5.47;3.15;;;11.10;99.90;;;;;;5090801;28;20235;-75
2022/11/26 10:26:34;;;;;;;5.50;3.15;;;11.10;99.90;;;;;;5060171;28;20176;-76
2022/11/26 10:29:22;;;;;;;4.45;3.30;;;11.20;99.90;;;;;;5055673;28;20250;-77
2022/11/26 10:31:51;;;;;;;4.78;3.00;;;11.20;99.90;;;;;;5091588;28;20172;-77
2022/11/26 10:34:25;;;;;;;5.40;3.15;;;11.20;99.90;;;;;;5062051;28;20241;-78
2022/11/26 10:36:51;;;;;;;4.93;3.00;;;11.20;99.90;;;;;;5059956;28;20318;-75
2022/11/26 10:39:19;;;;;;;4.28;3.00;;;11.30;99.90;;;;;;5093619;28;20216;-73
2022/11/26 10:41:46;;;;;;;4.60;3.15;;;11.20;99.90;;;;;;5088341;28;20443;-76
2022/11/26 10:44:40;;;;;;;4.80;2.80;;;11.30;99.90;;;;;;5089473;28;20203;-74
2022/11/26 10:47:20;;;;;;;5.53;3.00;;;11.30;99.90;;;;;;5059193;28;20178;-73
2022/11/26 10:49:47;;;;;;;5.00;2.78;;;11.40;99.90;;;;;;5092459;28;20264;-73
2022/11/26 10:52:33;;;;;;;4.47;2.83;;;11.40;99.90;;;;;;5091610;28;20180;-75
2022/11/26 10:55:22;;;;;;;4.43;2.60;;;11.40;99.90;;;;;;5093980;28;20184;-78
2022/11/26 10:58:15;;;;;;;7.05;2.65;;;11.60;99.90;;;;;;5055819;28;20176;-76
2022/11/26 11:00:49;;;;;;;5.85;2.60;;;11.80;99.90;;;;;;5052392;28;20184;-77
2022/11/26 11:03:20;;;;;;;5.03;2.40;;;12.00;99.90;;;;;;5075413;28;20224;-73
2022/11/26 11:05:46;;;;;;;4.70;2.58;;;12.20;99.90;;;;;;5094423;28;20255;-75
2022/11/26 11:08:31;;;;;;;3.90;2.30;;;12.40;99.90;;;;;;5095279;28;20264;-75
2022/11/26 11:10:59;;;;;;;4.43;2.53;;;12.50;99.90;;;;;;5091862;28;20184;-76
2022/11/26 11:13:45;;;;;;;5.82;2.80;;;12.70;99.90;;;;;;5057380;28;20184;-76
2022/11/26 11:16:18;;;;;;;3.97;3.00;;;12.80;99.90;;;;;;5056882;28;20280;-74
2022/11/26 11:18:56;;;;;;;4.80;2.83;;;12.80;99.90;;;;;;5059368;28;20172;-76
2022/11/26 11:21:28;;;;;;;5.07;2.50;;;12.80;99.90;;;;;;5093637;28;20259;-76
2022/11/26 11:24:20;;;;;;;3.97;2.72;;;12.80;99.90;;;;;;5090004;28;20188;-76
2022/11/26 11:26:54;;;;;;;5.15;2.40;;;12.80;99.90;;;;;;5094603;28;20171;-77
2022/11/26 11:29:25;;;;;;;4.22;2.35;;;12.80;99.90;;;;;;5060308;28;20176;-74
2022/11/26 11:31:51;;;;;;;3.33;2.35;;;12.90;99.90;;;;;;5090379;28;20180;-75
2022/11/26 11:34:25;;;;;;;5.60;2.83;;;12.90;99.90;;;;;;5058402;28;20169;-76
2022/11/26 11:36:58;;;;;;;4.65;2.63;;;13.00;99.90;;;;;;5093765;28;20176;-77
2022/11/26 11:39:29;;;;;;;4.95;2.40;;;13.00;99.90;;;;;;5090327;28;20193;-77
2022/11/26 11:41:56;;;;;;;4.20;2.53;;;13.10;99.90;;;;;;5099132;28;20197;-75
2022/11/26 11:44:32;;;;;;;5.15;2.33;;;13.10;99.90;;;;;;5095157;28;20196;-75
2022/11/26 11:47:13;;;;;;;5.25;2.25;;;13.10;99.90;;;;;;5057963;28;20267;-76
2022/11/26 11:50:08;;;;;;;5.85;2.40;;;13.10;99.90;;;;;;5090605;28;20222;-78
2022/11/26 11:53:03;;;;;;;3.92;2.28;;;13.10;99.90;;;;;;5057906;28;20180;-76
2022/11/26 11:55:46;;;;;;;4.43;2.20;;;13.10;99.90;;;;;;5094099;28;20213;-76
2022/11/26 11:58:30;;;;;;;4.50;2.30;;;13.10;99.90;;;;;;5102321;28;20173;-73
2022/11/26 12:01:01;;;;;;;5.85;2.40;;;13.00;99.90;;;;;;5064666;28;20257;-74
2022/11/26 12:03:29;;;;;;;3.50;1.70;;;13.00;99.90;;;;;;5071850;28;20530;-79
2022/11/26 12:06:13;;;;;;;4.38;1.90;;;13.00;99.90;;;;;;5079979;28;20175;-73
2022/11/26 12:08:59;;;;;;;4.43;1.85;;;13.00;99.90;;;;;;5059638;28;20183;-73
2022/11/26 12:12:11;;;;;;;3.45;1.65;;;12.90;99.90;;;;;;5091398;28;20211;-75
2022/11/26 12:14:46;;;;;;;4.28;1.95;;;12.90;99.90;;;;;;5031492;28;20192;-73
2022/11/26 12:17:40;;;;;;;3.10;1.60;;;12.80;99.90;;;;;;5057025;28;20176;-73
2022/11/26 12:20:31;;;;;;;4.25;1.80;;;12.80;99.90;;;;;;5057635;28;20245;-74
2022/11/26 12:23:13;;;;;;;3.50;1.50;;;12.80;99.90;;;;;;5037833;28;20224;-74
2022/11/26 12:25:39;;;;;;;4.47;1.42;;;12.70;99.90;;;;;;5112028;28;20208;-78
2022/11/26 12:28:25;;;;;;;4.50;1.85;;;12.70;99.90;;;;;;5064002;28;20180;-76
2022/11/26 12:31:00;;;;;;;3.50;1.80;;;12.70;99.90;;;;;;5064373;28;20188;-77
2022/11/26 12:33:28;;;;;;;3.55;1.70;;;12.70;99.90;;;;;;5095031;28;20194;-78
2022/11/26 12:35:59;;;;;;;3.58;1.40;;;12.70;99.90;;;;;;5059473;28;20169;-77
2022/11/26 12:38:58;;;;;;;4.03;1.77;;;12.70;99.90;;;;;;5061181;28;20207;-77
2022/11/26 12:41:33;;;;;;;2.65;1.45;;;12.70;99.90;;;;;;5084826;28;20261;-73
2022/11/26 12:44:16;;;;;;;2.80;1.40;;;12.80;99.90;;;;;;5057595;28;20192;-75
2022/11/26 12:47:12;;;;;;;4.70;1.60;;;12.70;99.90;;;;;;5092481;28;20169;-77
2022/11/26 12:50:03;;;;;;;4.00;1.52;;;12.70;99.90;;;;;;5054897;28;20185;-79
2022/11/26 12:52:57;;;;;;;3.67;1.48;;;12.70;99.90;;;;;;5089982;28;20183;-75
2022/11/26 12:55:33;;;;;;;2.78;1.60;;;12.80;99.90;;;;;;5061430;28;20270;-76
2022/11/26 12:58:20;;;;;;;2.83;1.65;;;12.80;99.90;;;;;;5092571;28;20281;-76
2022/11/26 13:00:51;;;;;;;4.45;1.90;;;12.90;99.90;;;;;;5064373;28;20183;-77
2022/11/26 13:03:28;;;;;;;6.10;2.10;;;12.90;99.90;;;;;;5094164;28;20192;-75
2022/11/26 13:06:32;;;;;;;3.30;1.85;;;13.00;99.90;;;;;;5092839;28;20195;-77
2022/11/26 13:09:46;;;;;;;4.80;1.95;;;13.00;99.90;;;;;;5060497;28;20168;-76
2022/11/26 13:12:37;;;;;;;3.40;1.80;;;13.00;99.90;;;;;;5044929;28;20219;-77
2022/11/26 13:15:12;;;;;;;5.25;2.10;;;13.00;99.90;;;;;;5094497;28;20185;-77